• Join FlightAware (Why Join?)
  • Login
  • US Flag 
06:24AM EDT


 

Airport Tracker/Info


-or-


 

Live Flight TrackerFlight Track Log ✈ EJA614 ✈ 29-Jul-2013 ✈ KWWD - KHPN

Flight Track Log - Related Links

Times and Time Zones

All times are in EDT time to prevent confusion due to time zone crossing. See the EJA614 flight status page for this flight to view local times or setup timezone preferences in your user account.

Time Position Orientation Groundspeed Altitude Reporting Facility
EDT Latitude Longitude Course Direction KTS MPH feet Rate Location/Type
08:43AM 39.0486 -74.8833 52° Northeast 198 228 1,900  Level Washington Center
08:45AM 39.1497 -74.7217 51° Northeast 269 310 9,200 2,820 Climbing Washington Center
08:46AM 39.1992 -74.6436 51° Northeast 299 344 11,600 2,460 Climbing Washington Center
08:48AM 39.3435 -74.3998 52° Northeast  Level FlightAware Approximate
08:48AM 39.3114 -74.4658 51° Northeast 337 388 16,000  Level New York Center
08:49AM 39.3814 -74.3619 49° Northeast 361 415 17,000 480 Climbing New York Center
08:50AM 39.4514 -74.2553 50° Northeast 401 461 17,000  Level New York Center
08:51AM 39.5256 -74.1406 50° Northeast 425 489 17,000  Level New York Center
08:52AM 39.6086 -74.0097 50° Northeast 425 489 17,000  Level New York Center
08:53AM 39.6825 -73.8944 50° Northeast 419 482 17,000  Level New York Center
08:54AM 39.7581 -73.8006 44° Northeast 414 476 17,000  Level New York Center
08:55AM 39.8486 -73.6828 45° Northeast 414 476 17,000  Level New York Center
08:56AM 39.9325 -73.5753 44° Northeast 415 478 17,000 -300 Level New York Center
08:58AM 40.1128 -73.3436 44° Northeast 407 468 16,200 -960 Descending Boston Center
08:59AM 40.1950 -73.2386 44° Northeast 407 468 14,000 -2,160 Descending Boston Center
09:00AM 40.2747 -73.1364 44° Northeast 407 468 11,900 -1,500 Descending Boston Center
09:01AM 40.3483 -73.0392 45° Northeast 396 456 11,000 -480 Descending Boston Center
09:02AM 40.4217 -72.9417 45° Northeast 376 433 11,000 -540 Level Boston Center
09:04AM 40.5833 -72.7333 44° Northeast 309 356 9,400 -600 Descending New York TRACON
09:05AM 40.6667 -72.7000 17° North 290 334 9,000 -480 Descending New York TRACON
09:06AM 40.7333 -72.7000 360° North 292 336 8,400 -900 Descending New York TRACON
09:07AM 40.8167 -72.7000 360° North 291 335 7,200 -720 Descending New York TRACON
09:08AM 40.9000 -72.7000 360° North 287 330 7,000 -120 Descending New York TRACON
09:09AM 40.9833 -72.7000 360° North 287 330 7,000  Level New York TRACON
09:10AM 41.0333 -72.7500 323° Northwest 278 320 7,000  Level New York TRACON
09:11AM 41.0667 -72.8500 294° West 267 307 7,000 -480 Level New York TRACON
09:12AM 41.1000 -72.9333 298° West 261 300 6,000 -1,020 Descending New York TRACON
09:13AM 41.1167 -73.0167 285° West 236 272 5,100 -540 Descending New York TRACON
09:14AM 41.1500 -73.0833 304° West 219 252 5,000 -60 Descending New York TRACON
09:15AM 41.1667 -73.1667 285° West 223 257 5,000 -300 Level New York TRACON
09:16AM 41.1667 -73.2500 270° West 229 264 4,400 -540 Descending New York TRACON
09:17AM 41.1833 -73.3333 285° West 231 266 4,000 -240 Descending New York TRACON
09:18AM 41.1833 -73.4000 270° West 225 259 4,000 -60 Level New York TRACON
09:19AM 41.1833 -73.5000 270° West 226 260 3,900 -480 Descending New York TRACON
09:20AM 41.2000 -73.5667 288° West 226 260 3,000 -480 Descending New York TRACON
09:21AM 41.2167 -73.6500 285° West 220 253 3,000 -120 Level New York TRACON
09:22AM 41.2167 -73.7167 270° West 222 255 2,800 -540 Descending New York TRACON
09:23AM 41.1833 -73.7833 236° Southwest 205 236 2,000 -420 Descending New York TRACON
09:24AM 41.1500 -73.7667 159° South 168 193 2,000 -420 Level New York TRACON
09:25AM 41.1167 -73.7333 143° Southeast 153 176 1,300 -720 Descending New York TRACON
09:26AM 41.0833 -73.7167 159° South 131 151 600 -660 Descending New York TRACON